APG223 RPLL-RPVE
Flight info
| Callsign | APG223 |
|---|---|
| Flight time | 0h 40m |
| Altitude | 25000 |
| Route | RDVXVERDE/06 VERDE W24 TAPER TAPER7A |
| Aircraft | A320/M-SDE3FGHIRWY/LB1 |
Departure
| Time | 2026-04-25 12:25 |
|---|---|
| Airport | Ninoy Aquino International Airport (RPLL) |
Arrival
| Time | 2026-04-25 13:05 |
|---|---|
| Airport | Godofredo P. Ramos Airport (RPVE) |
| Time | Latitude | Longitude | Altitude | Speed | Heading |
|---|---|---|---|---|---|
| 2026-04-25 12:18 | 14.50782 | 121.01377 | 70 ft | 0 kts | 244° |
| 2026-04-25 12:19 | 14.50780 | 121.01371 | 70 ft | 2 kts | 244° |
| 2026-04-25 12:20 | 14.50767 | 121.01347 | 70 ft | 6 kts | 241° |
| 2026-04-25 12:20 | 14.50737 | 121.01314 | 64 ft | 7 kts | 199° |
| 2026-04-25 12:20 | 14.50680 | 121.01316 | 71 ft | 9 kts | 197° |
| 2026-04-25 12:20 | 14.50635 | 121.01259 | 71 ft | 12 kts | 242° |
| 2026-04-25 12:21 | 14.50588 | 121.01175 | 71 ft | 16 kts | 240° |
| 2026-04-25 12:21 | 14.50523 | 121.01059 | 71 ft | 21 kts | 240° |
| 2026-04-25 12:21 | 14.50440 | 121.00910 | 63 ft | 26 kts | 240° |
| 2026-04-25 12:21 | 14.50340 | 121.00731 | 65 ft | 30 kts | 240° |
| 2026-04-25 12:22 | 14.50259 | 121.00584 | 69 ft | 22 kts | 240° |
| 2026-04-25 12:22 | 14.50180 | 121.00441 | 60 ft | 23 kts | 240° |
| 2026-04-25 12:22 | 14.50099 | 121.00296 | 70 ft | 23 kts | 240° |
| 2026-04-25 12:22 | 14.50018 | 121.00152 | 66 ft | 23 kts | 240° |
| 2026-04-25 12:23 | 14.49942 | 121.00015 | 64 ft | 14 kts | 239° |
| 2026-04-25 12:23 | 14.49909 | 120.99969 | 71 ft | 6 kts | 217° |
| 2026-04-25 12:23 | 14.49863 | 120.99974 | 71 ft | 9 kts | 153° |
| 2026-04-25 12:23 | 14.49804 | 121.00017 | 66 ft | 12 kts | 116° |
| 2026-04-25 12:24 | 14.49837 | 121.00102 | 63 ft | 17 kts | 60° |
| 2026-04-25 12:24 | 14.49970 | 121.00339 | 67 ft | 65 kts | 60° |
| 2026-04-25 12:24 | 14.50280 | 121.00897 | 65 ft | 113 kts | 60° |
| 2026-04-25 12:24 | 14.50739 | 121.01735 | 93 ft | 152 kts | 63° |
| 2026-04-25 12:25 | 14.51234 | 121.02640 | 757 ft | 140 kts | 62° |
| 2026-04-25 12:25 | 14.51735 | 121.03537 | 1273 ft | 147 kts | 62° |
| 2026-04-25 12:25 | 14.52258 | 121.04469 | 1786 ft | 156 kts | 62° |
| 2026-04-25 12:25 | 14.52846 | 121.05525 | 1995 ft | 186 kts | 62° |
| 2026-04-25 12:26 | 14.53524 | 121.06753 | 2369 ft | 202 kts | 62° |
| 2026-04-25 12:26 | 14.54212 | 121.08004 | 3127 ft | 197 kts | 62° |
| 2026-04-25 12:26 | 14.54888 | 121.09237 | 3773 ft | 201 kts | 62° |
| 2026-04-25 12:26 | 14.55604 | 121.10547 | 4091 ft | 221 kts | 62° |
| 2026-04-25 12:27 | 14.56413 | 121.12047 | 4288 ft | 258 kts | 64° |
| 2026-04-25 12:27 | 14.56887 | 121.13898 | 4874 ft | 276 kts | 91° |
| 2026-04-25 12:27 | 14.56422 | 121.15786 | 6046 ft | 270 kts | 120° |
| 2026-04-25 12:27 | 14.55196 | 121.17217 | 7192 ft | 271 kts | 142° |
| 2026-04-25 12:28 | 14.53610 | 121.18361 | 7893 ft | 284 kts | 146° |
| 2026-04-25 12:28 | 14.51931 | 121.19486 | 8739 ft | 290 kts | 147° |
| 2026-04-25 12:28 | 14.50226 | 121.20621 | 9584 ft | 295 kts | 147° |
| 2026-04-25 12:28 | 14.48486 | 121.21783 | 9941 ft | 298 kts | 147° |
| 2026-04-25 12:29 | 14.46744 | 121.22954 | 10018 ft | 302 kts | 147° |
| 2026-04-25 12:29 | 14.44899 | 121.24194 | 10094 ft | 331 kts | 148° |
| 2026-04-25 12:29 | 14.42721 | 121.25148 | 10354 ft | 352 kts | 169° |
| 2026-04-25 12:29 | 14.40231 | 121.25170 | 10814 ft | 366 kts | 191° |
| 2026-04-25 12:30 | 14.37777 | 121.24584 | 11622 ft | 367 kts | 194° |
| 2026-04-25 12:30 | 14.35297 | 121.23969 | 12557 ft | 366 kts | 194° |
| 2026-04-25 12:30 | 14.32817 | 121.23355 | 13452 ft | 367 kts | 194° |
| 2026-04-25 12:30 | 14.30322 | 121.22735 | 14164 ft | 372 kts | 194° |
| 2026-04-25 12:31 | 14.27784 | 121.22107 | 14785 ft | 378 kts | 194° |
| 2026-04-25 12:31 | 14.25205 | 121.21472 | 15441 ft | 383 kts | 194° |
| 2026-04-25 12:31 | 14.22605 | 121.20835 | 16102 ft | 387 kts | 194° |
| 2026-04-25 12:31 | 14.19971 | 121.20190 | 16733 ft | 391 kts | 194° |
| 2026-04-25 12:32 | 14.17311 | 121.19539 | 17329 ft | 395 kts | 194° |
| 2026-04-25 12:32 | 14.14627 | 121.18881 | 17964 ft | 397 kts | 194° |
| 2026-04-25 12:32 | 14.11934 | 121.18223 | 18641 ft | 399 kts | 194° |
| 2026-04-25 12:32 | 14.09219 | 121.17560 | 19165 ft | 404 kts | 194° |
| 2026-04-25 12:33 | 14.06468 | 121.16888 | 19677 ft | 408 kts | 194° |
| 2026-04-25 12:33 | 14.03695 | 121.16208 | 20217 ft | 411 kts | 194° |
| 2026-04-25 12:33 | 14.00901 | 121.15522 | 20758 ft | 414 kts | 194° |
| 2026-04-25 12:33 | 13.98095 | 121.14833 | 21276 ft | 416 kts | 194° |
| 2026-04-25 12:34 | 13.95269 | 121.14139 | 21736 ft | 419 kts | 194° |
| 2026-04-25 12:34 | 13.92419 | 121.13443 | 22179 ft | 422 kts | 194° |
| 2026-04-25 12:34 | 13.89554 | 121.12745 | 22641 ft | 425 kts | 194° |
| 2026-04-25 12:34 | 13.88618 | 121.12517 | 22793 ft | 426 kts | 194° |
| 2026-04-25 12:35 | 13.83810 | 121.11341 | 23553 ft | 429 kts | 194° |
| 2026-04-25 12:35 | 13.80900 | 121.10628 | 23993 ft | 431 kts | 194° |
| 2026-04-25 12:35 | 13.77974 | 121.09914 | 24417 ft | 433 kts | 194° |
| 2026-04-25 12:35 | 13.75033 | 121.09196 | 24801 ft | 436 kts | 194° |
| 2026-04-25 12:36 | 13.72070 | 121.08475 | 24960 ft | 437 kts | 194° |
| 2026-04-25 12:36 | 13.69114 | 121.07755 | 24956 ft | 436 kts | 194° |
| 2026-04-25 12:36 | 13.66164 | 121.07034 | 24928 ft | 436 kts | 194° |
| 2026-04-25 12:36 | 13.63215 | 121.06313 | 24927 ft | 436 kts | 194° |
| 2026-04-25 12:37 | 13.60263 | 121.05589 | 24922 ft | 436 kts | 194° |
| 2026-04-25 12:37 | 13.57317 | 121.04869 | 24922 ft | 435 kts | 194° |
| 2026-04-25 12:37 | 13.54329 | 121.04382 | 24941 ft | 437 kts | 184° |
| 2026-04-25 12:37 | 13.51290 | 121.04504 | 24926 ft | 439 kts | 173° |
| 2026-04-25 12:38 | 13.48319 | 121.05249 | 24920 ft | 443 kts | 162° |
| 2026-04-25 12:38 | 13.45529 | 121.06603 | 24923 ft | 444 kts | 150° |
| 2026-04-25 12:38 | 13.42963 | 121.08373 | 24913 ft | 445 kts | 147° |
| 2026-04-25 12:38 | 13.40439 | 121.10149 | 24911 ft | 445 kts | 147° |
| 2026-04-25 12:39 | 13.37885 | 121.11949 | 24917 ft | 445 kts | 147° |
| 2026-04-25 12:39 | 13.35328 | 121.13752 | 24916 ft | 445 kts | 147° |
| 2026-04-25 12:39 | 13.32774 | 121.15548 | 24915 ft | 445 kts | 147° |
| 2026-04-25 12:39 | 13.30216 | 121.17347 | 24915 ft | 446 kts | 147° |
| 2026-04-25 12:40 | 13.27657 | 121.19145 | 24905 ft | 445 kts | 147° |
| 2026-04-25 12:40 | 13.25102 | 121.20936 | 24904 ft | 445 kts | 147° |
| 2026-04-25 12:40 | 13.22541 | 121.22730 | 24907 ft | 445 kts | 147° |
| 2026-04-25 12:40 | 13.19980 | 121.24521 | 24907 ft | 445 kts | 147° |
| 2026-04-25 12:41 | 13.17415 | 121.26311 | 24791 ft | 446 kts | 147° |
| 2026-04-25 12:41 | 13.14864 | 121.28094 | 24391 ft | 441 kts | 147° |
| 2026-04-25 12:41 | 13.12344 | 121.29862 | 23936 ft | 437 kts | 147° |
| 2026-04-25 12:41 | 13.09841 | 121.31620 | 23471 ft | 434 kts | 147° |
| 2026-04-25 12:42 | 13.07364 | 121.33359 | 23000 ft | 431 kts | 147° |
| 2026-04-25 12:42 | 13.06561 | 121.33924 | 22848 ft | 430 kts | 147° |
| 2026-04-25 12:42 | 13.03272 | 121.36229 | 22215 ft | 426 kts | 147° |
| 2026-04-25 12:42 | 13.00038 | 121.38490 | 21596 ft | 423 kts | 147° |
| 2026-04-25 12:43 | 12.97614 | 121.40183 | 21125 ft | 420 kts | 146° |
| 2026-04-25 12:43 | 12.95221 | 121.41855 | 20655 ft | 411 kts | 146° |
| 2026-04-25 12:43 | 12.90618 | 121.45080 | 19728 ft | 391 kts | 146° |
| 2026-04-25 12:44 | 12.88400 | 121.46633 | 19271 ft | 383 kts | 146° |
| 2026-04-25 12:44 | 12.86220 | 121.48157 | 18845 ft | 374 kts | 146° |
| 2026-04-25 12:44 | 12.82718 | 121.50598 | 18231 ft | 361 kts | 146° |
| 2026-04-25 12:45 | 12.80657 | 121.52032 | 17775 ft | 356 kts | 146° |
| 2026-04-25 12:45 | 12.78621 | 121.53450 | 17308 ft | 352 kts | 146° |
| 2026-04-25 12:45 | 12.74615 | 121.56246 | 16492 ft | 347 kts | 146° |
| 2026-04-25 12:46 | 12.72629 | 121.57628 | 16026 ft | 343 kts | 146° |
| 2026-04-25 12:46 | 12.70666 | 121.58997 | 15550 ft | 340 kts | 146° |
| 2026-04-25 12:46 | 12.68721 | 121.60355 | 15084 ft | 337 kts | 146° |
| 2026-04-25 12:46 | 12.66792 | 121.61702 | 14612 ft | 334 kts | 146° |
| 2026-04-25 12:47 | 12.64880 | 121.63040 | 14140 ft | 331 kts | 146° |
| 2026-04-25 12:47 | 12.62981 | 121.64368 | 13677 ft | 329 kts | 146° |
| 2026-04-25 12:47 | 12.61103 | 121.65678 | 13255 ft | 325 kts | 146° |
| 2026-04-25 12:47 | 12.59244 | 121.66974 | 12822 ft | 322 kts | 146° |
| 2026-04-25 12:48 | 12.57396 | 121.68260 | 12353 ft | 320 kts | 146° |
| 2026-04-25 12:48 | 12.55561 | 121.69536 | 11881 ft | 318 kts | 146° |
| 2026-04-25 12:48 | 12.53736 | 121.70809 | 11447 ft | 316 kts | 146° |
| 2026-04-25 12:48 | 12.51944 | 121.72062 | 11169 ft | 308 kts | 145° |
| 2026-04-25 12:49 | 12.50199 | 121.73283 | 10918 ft | 300 kts | 145° |
| 2026-04-25 12:49 | 12.48489 | 121.74476 | 10668 ft | 296 kts | 145° |
| 2026-04-25 12:49 | 12.46790 | 121.75655 | 10458 ft | 294 kts | 144° |
| 2026-04-25 12:49 | 12.45091 | 121.76831 | 10300 ft | 294 kts | 144° |
| 2026-04-25 12:50 | 12.43398 | 121.78003 | 10098 ft | 293 kts | 144° |
| 2026-04-25 12:50 | 12.41718 | 121.79168 | 9862 ft | 290 kts | 144° |
| 2026-04-25 12:50 | 12.40051 | 121.80325 | 9721 ft | 290 kts | 143° |
| 2026-04-25 12:50 | 12.38386 | 121.81482 | 9507 ft | 287 kts | 144° |
| 2026-04-25 12:51 | 12.36692 | 121.82580 | 9021 ft | 291 kts | 151° |
| 2026-04-25 12:51 | 12.34787 | 121.83283 | 8709 ft | 289 kts | 161° |
| 2026-04-25 12:51 | 12.32904 | 121.83829 | 8667 ft | 274 kts | 160° |
| 2026-04-25 12:51 | 12.31107 | 121.84364 | 8531 ft | 264 kts | 159° |
| 2026-04-25 12:52 | 12.29369 | 121.84875 | 8346 ft | 262 kts | 159° |
| 2026-04-25 12:52 | 12.27590 | 121.85418 | 8175 ft | 263 kts | 160° |
| 2026-04-25 12:52 | 12.25831 | 121.85945 | 8042 ft | 264 kts | 160° |
| 2026-04-25 12:52 | 12.24076 | 121.86468 | 7897 ft | 264 kts | 160° |
| 2026-04-25 12:53 | 12.22344 | 121.86981 | 7749 ft | 262 kts | 160° |
| 2026-04-25 12:53 | 12.20599 | 121.87493 | 7628 ft | 262 kts | 160° |
| 2026-04-25 12:53 | 12.18850 | 121.88011 | 7530 ft | 262 kts | 159° |
| 2026-04-25 12:53 | 12.17106 | 121.88537 | 7364 ft | 263 kts | 159° |
| 2026-04-25 12:54 | 12.15362 | 121.89065 | 7180 ft | 261 kts | 160° |
| 2026-04-25 12:54 | 12.13617 | 121.89582 | 7029 ft | 259 kts | 160° |
| 2026-04-25 12:54 | 12.11878 | 121.90096 | 6842 ft | 261 kts | 160° |
| 2026-04-25 12:54 | 12.10156 | 121.90606 | 6699 ft | 255 kts | 160° |
| 2026-04-25 12:55 | 12.08473 | 121.91109 | 6558 ft | 249 kts | 160° |
| 2026-04-25 12:55 | 12.07372 | 121.91420 | 6419 ft | 247 kts | 165° |
| 2026-04-25 12:55 | 12.05051 | 121.91326 | 5962 ft | 259 kts | 194° |
| 2026-04-25 12:55 | 12.03454 | 121.90476 | 5730 ft | 259 kts | 217° |
| 2026-04-25 12:56 | 12.02261 | 121.89133 | 5447 ft | 257 kts | 234° |
| 2026-04-25 12:56 | 12.01230 | 121.87622 | 4983 ft | 261 kts | 234° |
| 2026-04-25 12:56 | 12.00197 | 121.86111 | 4668 ft | 257 kts | 234° |
| 2026-04-25 12:56 | 11.99176 | 121.84621 | 4345 ft | 255 kts | 234° |
| 2026-04-25 12:57 | 11.98159 | 121.83140 | 4037 ft | 254 kts | 234° |
| 2026-04-25 12:57 | 11.97153 | 121.81673 | 3789 ft | 250 kts | 234° |
| 2026-04-25 12:57 | 11.96166 | 121.80234 | 3729 ft | 252 kts | 234° |
| 2026-04-25 12:57 | 11.95161 | 121.78771 | 3747 ft | 251 kts | 234° |
| 2026-04-25 12:58 | 11.94155 | 121.77307 | 3757 ft | 252 kts | 234° |
| 2026-04-25 12:58 | 11.93158 | 121.75885 | 3746 ft | 238 kts | 229° |
| 2026-04-25 12:58 | 11.91947 | 121.74835 | 3754 ft | 221 kts | 206° |
| 2026-04-25 12:58 | 11.90562 | 121.74301 | 3744 ft | 206 kts | 187° |
| 2026-04-25 12:59 | 11.89116 | 121.74245 | 3767 ft | 214 kts | 168° |
| 2026-04-25 12:59 | 11.87737 | 121.74650 | 3749 ft | 199 kts | 149° |
| 2026-04-25 12:59 | 11.86503 | 121.75309 | 3765 ft | 204 kts | 149° |
| 2026-04-25 12:59 | 11.85258 | 121.75994 | 3758 ft | 202 kts | 140° |
| 2026-04-25 13:00 | 11.84402 | 121.77043 | 3825 ft | 183 kts | 111° |
| 2026-04-25 13:00 | 11.84168 | 121.77840 | 3772 ft | 174 kts | 95° |
| 2026-04-25 13:00 | 11.84424 | 121.79447 | 3379 ft | 175 kts | 63° |
| 2026-04-25 13:00 | 11.84999 | 121.80544 | 3113 ft | 175 kts | 62° |
| 2026-04-25 13:01 | 11.85558 | 121.81643 | 2869 ft | 174 kts | 63° |
| 2026-04-25 13:01 | 11.86102 | 121.82728 | 2634 ft | 174 kts | 63° |
| 2026-04-25 13:01 | 11.86650 | 121.83821 | 2396 ft | 172 kts | 63° |
| 2026-04-25 13:01 | 11.87187 | 121.84888 | 2158 ft | 164 kts | 63° |
| 2026-04-25 13:02 | 11.87688 | 121.85884 | 1962 ft | 150 kts | 63° |
| 2026-04-25 13:02 | 11.88152 | 121.86806 | 1771 ft | 145 kts | 64° |
| 2026-04-25 13:02 | 11.88612 | 121.87724 | 1574 ft | 145 kts | 64° |
| 2026-04-25 13:02 | 11.89069 | 121.88636 | 1376 ft | 144 kts | 63° |
| 2026-04-25 13:03 | 11.89527 | 121.89553 | 1195 ft | 144 kts | 64° |
| 2026-04-25 13:03 | 11.89979 | 121.90464 | 1001 ft | 144 kts | 64° |
| 2026-04-25 13:03 | 11.90433 | 121.91372 | 806 ft | 143 kts | 64° |
| 2026-04-25 13:03 | 11.90882 | 121.92274 | 617 ft | 142 kts | 64° |
| 2026-04-25 13:04 | 11.91330 | 121.93173 | 424 ft | 142 kts | 63° |
| 2026-04-25 13:04 | 11.91783 | 121.94069 | 254 ft | 142 kts | 64° |
| 2026-04-25 13:04 | 11.92240 | 121.94962 | 90 ft | 141 kts | 64° |
| 2026-04-25 13:04 | 11.92658 | 121.95798 | 36 ft | 107 kts | 62° |
| 2026-04-25 13:05 | 11.92817 | 121.96109 | 35 ft | 23 kts | 63° |
| 2026-04-25 13:05 | 11.92858 | 121.96197 | 34 ft | 7 kts | 64° |
| 2026-04-25 13:05 | 11.92872 | 121.96226 | 34 ft | 9 kts | 64° |
| 2026-04-25 13:05 | 11.92905 | 121.96293 | 33 ft | 12 kts | 63° |
| 2026-04-25 13:06 | 11.92949 | 121.96382 | 34 ft | 16 kts | 62° |
| 2026-04-25 13:06 | 11.92955 | 121.96459 | 34 ft | 11 kts | 135° |
| 2026-04-25 13:06 | 11.92903 | 121.96488 | 40 ft | 7 kts | 153° |
| 2026-04-25 13:06 | 11.92860 | 121.96511 | 41 ft | 8 kts | 152° |
| 2026-04-25 13:07 | 11.92805 | 121.96523 | 44 ft | 8 kts | 201° |
| 2026-04-25 13:07 | 11.92771 | 121.96476 | 44 ft | 9 kts | 244° |
| 2026-04-25 13:07 | 11.92742 | 121.96416 | 44 ft | 11 kts | 243° |
| 2026-04-25 13:07 | 11.92710 | 121.96362 | 44 ft | 6 kts | 213° |
| 2026-04-25 13:08 | 11.92675 | 121.96371 | 44 ft | 0 kts | 153° |